createdAt,value
2022-07-29T00:00:07.266Z,43.90
2022-07-29T00:01:06.286Z,43.30
2022-07-29T00:02:06.249Z,44.10
2022-07-29T00:03:06.286Z,44.31
2022-07-29T00:04:06.301Z,44.40
2022-07-29T00:05:06.233Z,44.60
2022-07-29T00:06:06.228Z,44.31
2022-07-29T00:07:06.231Z,45.21
2022-07-29T00:08:09.398Z,45.21
2022-07-29T00:09:07.205Z,44.20
2022-07-29T00:10:06.182Z,45.21
2022-07-29T00:11:06.235Z,44.91
2022-07-29T00:12:06.175Z,44.93
2022-07-29T00:13:06.171Z,45.13
2022-07-29T00:14:06.369Z,45.81
2022-07-29T00:15:06.154Z,45.33
2022-07-29T00:16:06.223Z,45.33
2022-07-29T00:17:06.170Z,45.63
2022-07-29T00:18:06.123Z,45.33
2022-07-29T00:19:06.166Z,45.13
2022-07-29T00:20:06.153Z,45.13
2022-07-29T00:21:06.130Z,46.03
2022-07-29T00:22:06.102Z,45.94
2022-07-29T00:23:06.346Z,46.03
2022-07-29T00:24:06.086Z,45.94
2022-07-29T00:25:06.073Z,45.73
2022-07-29T00:26:06.098Z,45.13
2022-07-29T00:27:06.066Z,45.43
2022-07-29T00:28:06.051Z,45.73
2022-07-29T00:29:33.205Z,45.83
2022-07-29T00:30:07.044Z,45.94
2022-07-29T00:31:06.087Z,44.63
2022-07-29T00:32:06.040Z,45.83
2022-07-29T00:33:09.105Z,46.22
2022-07-29T00:34:06.005Z,46.03
2022-07-29T00:35:06.067Z,46.14
2022-07-29T00:36:06.012Z,45.33
2022-07-29T00:37:05.990Z,45.83
2022-07-29T00:38:05.976Z,45.73
2022-07-29T00:39:05.974Z,45.23
2022-07-29T00:40:06.017Z,45.73
2022-07-29T00:41:05.975Z,45.73
2022-07-29T00:42:05.941Z,45.43
2022-07-29T00:43:05.941Z,45.33
2022-07-29T00:44:05.934Z,46.54
2022-07-29T00:45:05.928Z,46.23
2022-07-29T00:46:05.927Z,46.03
2022-07-29T00:47:06.041Z,45.63
2022-07-29T00:48:05.898Z,45.43
2022-07-29T00:49:05.938Z,45.73
2022-07-29T00:50:05.882Z,45.83
2022-07-29T00:51:05.871Z,45.73
2022-07-29T00:52:05.891Z,46.64
2022-07-29T00:53:05.859Z,46.46
2022-07-29T00:54:05.853Z,46.94
2022-07-29T00:55:08.669Z,46.94
2022-07-29T00:56:05.858Z,47.06
2022-07-29T00:57:06.518Z,46.56
2022-07-29T00:58:05.817Z,46.36
2022-07-29T00:59:06.000Z,46.36
2022-07-29T01:00:05.802Z,45.65
2022-07-29T01:01:05.846Z,45.95
2022-07-29T01:02:06.041Z,47.46
2022-07-29T01:03:05.789Z,46.56
2022-07-29T01:04:05.774Z,47.28
2022-07-29T01:05:05.769Z,46.38
2022-07-29T01:06:05.759Z,47.16
2022-07-29T01:07:05.764Z,46.56
2022-07-29T01:08:05.745Z,47.26
2022-07-29T01:09:05.738Z,47.39
2022-07-29T01:10:05.728Z,47.59
2022-07-29T01:11:05.724Z,47.89
2022-07-29T01:12:05.727Z,48.19
2022-07-29T01:13:05.706Z,47.79
2022-07-29T01:14:05.694Z,47.89
2022-07-29T01:15:05.687Z,47.08
2022-07-29T01:16:05.740Z,47.19
2022-07-29T01:17:05.690Z,46.38
2022-07-29T01:18:05.664Z,46.66
2022-07-29T01:19:05.660Z,46.06
2022-07-29T01:20:05.643Z,45.95
2022-07-29T01:21:05.638Z,46.26
2022-07-29T01:22:05.643Z,47.16
2022-07-29T01:23:05.743Z,47.86
2022-07-29T01:24:05.607Z,46.15
2022-07-29T01:25:05.604Z,46.56
2022-07-29T01:26:05.907Z,47.39
2022-07-29T01:27:05.608Z,47.36
2022-07-29T01:28:05.577Z,48.29
2022-07-29T01:29:07.406Z,47.79
2022-07-29T01:30:05.603Z,48.29
2022-07-29T01:31:05.650Z,48.29
2022-07-29T01:32:05.713Z,48.09
2022-07-29T01:33:05.544Z,48.49
2022-07-29T01:34:05.532Z,48.09
2022-07-29T01:35:05.522Z,48.11
2022-07-29T01:36:05.514Z,48.49
2022-07-29T01:37:05.527Z,48.21
2022-07-29T01:38:05.501Z,48.49
2022-07-29T01:39:05.497Z,48.69
2022-07-29T01:40:05.499Z,48.19
2022-07-29T01:41:05.475Z,48.11
2022-07-29T01:42:05.629Z,48.52
2022-07-29T01:43:05.462Z,48.72
2022-07-29T01:44:05.450Z,48.39
2022-07-29T01:45:05.456Z,48.29
2022-07-29T01:46:05.465Z,48.11
2022-07-29T01:47:05.595Z,48.82
2022-07-29T01:48:05.631Z,49.52
2022-07-29T01:49:05.531Z,48.61
2022-07-29T01:50:05.410Z,49.02
2022-07-29T01:51:05.402Z,49.62
2022-07-29T01:52:05.409Z,49.32
2022-07-29T01:53:05.390Z,49.42
2022-07-29T01:54:05.448Z,49.62
2022-07-29T01:55:05.375Z,49.02
2022-07-29T01:56:05.362Z,48.72
2022-07-29T01:57:05.373Z,49.93
2022-07-29T01:58:05.350Z,49.42
2022-07-29T01:59:05.344Z,49.62
2022-07-29T02:00:05.324Z,49.52
2022-07-29T02:01:05.325Z,48.82
2022-07-29T02:02:05.380Z,49.52
2022-07-29T02:03:05.309Z,49.32
2022-07-29T02:04:05.294Z,49.12
2022-07-29T02:05:05.491Z,50.56
2022-07-29T02:06:05.284Z,49.82
2022-07-29T02:07:05.292Z,49.82
2022-07-29T02:08:05.277Z,49.32
2022-07-29T02:09:05.264Z,49.62
2022-07-29T02:10:05.331Z,48.92
2022-07-29T02:11:05.252Z,49.42
2022-07-29T02:12:05.315Z,49.22
2022-07-29T02:13:05.231Z,49.85
2022-07-29T02:14:05.227Z,49.62
2022-07-29T02:15:05.215Z,49.62
2022-07-29T02:16:05.242Z,50.33
2022-07-29T02:17:05.211Z,49.12
2022-07-29T02:18:05.190Z,50.23
2022-07-29T02:19:05.188Z,49.73
2022-07-29T02:20:05.180Z,49.52
2022-07-29T02:21:05.204Z,49.32
2022-07-29T02:22:06.178Z,49.52
2022-07-29T02:23:05.149Z,49.62
2022-07-29T02:24:05.151Z,49.93
2022-07-29T02:25:05.132Z,49.02
2022-07-29T02:26:05.128Z,48.92
2022-07-29T02:27:05.135Z,48.82
2022-07-29T02:28:05.114Z,48.72
2022-07-29T02:29:05.115Z,49.55
2022-07-29T02:30:05.101Z,50.15
2022-07-29T02:31:05.137Z,49.55
2022-07-29T02:32:05.143Z,49.85
2022-07-29T02:33:05.080Z,49.35
2022-07-29T02:34:05.073Z,49.95
2022-07-29T02:35:05.064Z,49.85
2022-07-29T02:36:05.059Z,49.75
2022-07-29T02:37:05.055Z,49.24
2022-07-29T02:38:05.039Z,49.62
2022-07-29T02:39:05.048Z,48.84
2022-07-29T02:40:05.030Z,50.15
2022-07-29T02:41:05.013Z,49.75
2022-07-29T02:42:05.037Z,50.15
2022-07-29T02:43:04.997Z,50.35
2022-07-29T02:44:04.998Z,50.56
2022-07-29T02:45:04.985Z,50.25
2022-07-29T02:46:05.108Z,49.04
2022-07-29T02:47:05.981Z,50.48
2022-07-29T02:48:04.960Z,50.17
2022-07-29T02:49:04.985Z,50.48
2022-07-29T02:50:05.005Z,50.65
2022-07-29T02:51:04.932Z,50.37
2022-07-29T02:52:04.942Z,50.56
2022-07-29T02:53:04.914Z,50.68
2022-07-29T02:54:04.912Z,50.48
2022-07-29T02:55:04.908Z,50.88
2022-07-29T02:56:04.910Z,50.48
2022-07-29T02:57:04.905Z,50.78
2022-07-29T02:58:04.872Z,51.28
2022-07-29T02:59:04.872Z,50.78
2022-07-29T03:00:04.863Z,50.78
2022-07-29T03:01:04.856Z,50.98
2022-07-29T03:02:04.920Z,50.57
2022-07-29T03:03:04.843Z,50.27
2022-07-29T03:04:04.835Z,50.07
2022-07-29T03:05:04.860Z,49.77
2022-07-29T03:06:04.813Z,50.37
2022-07-29T03:07:04.819Z,50.68
2022-07-29T03:08:04.807Z,50.17
2022-07-29T03:09:07.838Z,51.28
2022-07-29T03:10:05.784Z,50.27
2022-07-29T03:11:05.795Z,50.48
2022-07-29T03:12:04.788Z,50.57
2022-07-29T03:13:04.754Z,50.98
2022-07-29T03:14:04.757Z,51.81
2022-07-29T03:15:04.752Z,50.60
2022-07-29T03:16:04.785Z,50.48
2022-07-29T03:17:04.744Z,50.88
2022-07-29T03:18:04.724Z,51.18
2022-07-29T03:19:04.718Z,50.07
2022-07-29T03:20:04.715Z,51.38
2022-07-29T03:21:04.700Z,51.79
2022-07-29T03:22:04.712Z,50.90
2022-07-29T03:23:04.681Z,50.88
2022-07-29T03:24:08.288Z,51.08
2022-07-29T03:25:05.676Z,50.88
2022-07-29T03:26:04.668Z,51.08
2022-07-29T03:27:04.672Z,50.37
2022-07-29T03:28:04.653Z,50.27
2022-07-29T03:29:04.642Z,51.08
2022-07-29T03:30:04.635Z,51.28
2022-07-29T03:31:04.682Z,50.60
2022-07-29T03:32:07.960Z,51.99
2022-07-29T03:33:04.609Z,49.87
2022-07-29T03:34:05.606Z,51.40
2022-07-29T03:35:04.593Z,50.68
2022-07-29T03:36:04.583Z,50.37
2022-07-29T03:37:04.590Z,50.27
2022-07-29T03:38:04.570Z,50.68
2022-07-29T03:39:04.552Z,50.48
2022-07-29T03:40:04.611Z,51.61
2022-07-29T03:41:04.545Z,51.48
2022-07-29T03:42:04.540Z,50.98
2022-07-29T03:43:04.550Z,51.28
2022-07-29T03:44:04.526Z,52.09
2022-07-29T03:45:04.512Z,53.72
2022-07-29T03:46:04.569Z,55.54
2022-07-29T03:47:04.495Z,55.36
2022-07-29T03:48:04.509Z,55.46
2022-07-29T03:49:04.574Z,56.27
2022-07-29T03:50:04.496Z,53.96
2022-07-29T03:51:04.467Z,54.05
2022-07-29T03:52:04.464Z,53.85
2022-07-29T03:53:04.466Z,53.75
2022-07-29T03:54:14.302Z,54.16
2022-07-29T03:55:05.439Z,54.16
2022-07-29T03:56:04.611Z,52.36
2022-07-29T03:57:04.430Z,52.74
2022-07-29T03:58:04.437Z,54.16
2022-07-29T03:59:04.461Z,53.14
2022-07-29T04:00:04.409Z,55.46
2022-07-29T04:01:04.395Z,55.39
2022-07-29T04:02:04.500Z,53.88
2022-07-29T04:03:04.468Z,56.40
2022-07-29T04:04:04.421Z,58.82
2022-07-29T04:05:04.364Z,59.69
2022-07-29T04:06:04.360Z,59.58
2022-07-29T04:07:04.347Z,59.58
2022-07-29T04:08:04.632Z,58.47
2022-07-29T04:09:04.330Z,58.67
2022-07-29T04:10:04.327Z,57.67
2022-07-29T04:11:04.313Z,58.07
2022-07-29T04:12:04.591Z,57.84
2022-07-29T04:13:04.348Z,57.94
2022-07-29T04:14:04.293Z,56.93
2022-07-29T04:15:04.286Z,56.52
2022-07-29T04:16:04.322Z,55.92
2022-07-29T04:17:04.264Z,55.90
2022-07-29T04:18:04.283Z,55.72
2022-07-29T04:19:04.260Z,57.51
2022-07-29T04:20:04.256Z,56.20
2022-07-29T04:21:04.251Z,56.20
2022-07-29T04:22:04.234Z,57.64
2022-07-29T04:23:04.232Z,58.34
2022-07-29T04:24:04.337Z,59.93
2022-07-29T04:25:04.672Z,59.22
2022-07-29T04:26:04.195Z,57.43
2022-07-29T04:27:04.196Z,57.74
2022-07-29T04:28:04.348Z,57.01
2022-07-29T04:29:04.177Z,57.51
2022-07-29T04:30:04.164Z,58.01
2022-07-29T04:31:04.215Z,56.70
2022-07-29T04:32:04.145Z,55.87
2022-07-29T04:33:04.157Z,56.48
2022-07-29T04:34:04.144Z,56.77
2022-07-29T04:35:04.126Z,56.77
2022-07-29T04:36:04.122Z,60.68
2022-07-29T04:37:05.127Z,59.30
2022-07-29T04:38:04.113Z,59.70
2022-07-29T04:39:04.094Z,61.04
2022-07-29T04:40:04.092Z,62.59
2022-07-29T04:41:04.077Z,62.08
2022-07-29T04:42:04.074Z,61.27
2022-07-29T04:43:06.073Z,61.27
2022-07-29T04:44:04.060Z,61.37
2022-07-29T04:45:04.054Z,62.18
2022-07-29T04:46:04.117Z,62.21
2022-07-29T04:47:04.033Z,62.11
2022-07-29T04:48:04.043Z,63.02
2022-07-29T04:49:04.174Z,63.25
2022-07-29T04:50:04.019Z,62.41
2022-07-29T04:51:03.999Z,61.20
2022-07-29T04:52:04.163Z,61.98
2022-07-29T04:53:04.008Z,61.07
2022-07-29T04:54:03.981Z,62.99
2022-07-29T04:55:03.975Z,63.70
2022-07-29T04:56:03.980Z,62.38
2022-07-29T04:57:03.969Z,62.59
2022-07-29T04:58:03.973Z,63.09
2022-07-29T04:59:03.943Z,62.28
2022-07-29T05:00:03.939Z,61.35
2022-07-29T05:01:03.958Z,62.35
2022-07-29T05:02:03.969Z,61.04
2022-07-29T05:03:04.193Z,61.01
2022-07-29T05:04:03.912Z,61.21
2022-07-29T05:05:03.900Z,60.71
2022-07-29T05:06:03.903Z,59.67
2022-07-29T05:07:03.882Z,61.29
2022-07-29T05:08:03.897Z,59.37
2022-07-29T05:09:03.873Z,60.58
2022-07-29T05:10:03.863Z,60.98
2022-07-29T05:11:12.561Z,62.09
2022-07-29T05:12:04.848Z,63.90
2022-07-29T05:13:03.852Z,61.99
2022-07-29T05:14:03.834Z,62.09
2022-07-29T05:15:03.822Z,61.29
2022-07-29T05:16:03.846Z,61.99
2022-07-29T05:17:03.808Z,61.18
2022-07-29T05:18:03.827Z,59.77
2022-07-29T05:19:03.801Z,57.45
2022-07-29T05:20:03.791Z,56.32
2022-07-29T05:21:03.785Z,59.34
2022-07-29T05:22:03.779Z,58.84
2022-07-29T05:23:03.783Z,57.63
2022-07-29T05:24:03.769Z,59.34
2022-07-29T05:25:08.811Z,60.63
2022-07-29T05:26:03.745Z,59.31
2022-07-29T05:27:03.735Z,60.12
2022-07-29T05:28:03.746Z,58.71
2022-07-29T05:29:03.719Z,58.31
2022-07-29T05:30:03.710Z,58.61
2022-07-29T05:31:03.793Z,58.51
2022-07-29T05:32:03.698Z,57.88
2022-07-29T05:33:03.710Z,56.37
2022-07-29T05:34:03.683Z,53.55
2022-07-29T05:35:03.679Z,56.16
2022-07-29T05:36:03.670Z,56.97
2022-07-29T05:37:03.657Z,56.07
2022-07-29T05:38:03.655Z,56.44
2022-07-29T05:39:03.663Z,55.74
2022-07-29T05:40:03.643Z,53.63
2022-07-29T05:41:03.623Z,53.50
2022-07-29T05:42:03.624Z,53.90
2022-07-29T05:43:03.615Z,53.97
2022-07-29T05:44:03.626Z,53.50
2022-07-29T05:45:03.599Z,54.17
2022-07-29T05:46:03.623Z,52.06
2022-07-29T05:47:03.653Z,51.66
2022-07-29T05:48:03.576Z,52.29
2022-07-29T05:49:03.594Z,52.59
2022-07-29T05:50:03.553Z,52.69
2022-07-29T05:51:03.551Z,53.00
2022-07-29T05:52:03.557Z,51.99
2022-07-29T05:53:19.553Z,52.29
2022-07-29T05:54:04.547Z,52.19
2022-07-29T05:55:03.511Z,52.29
2022-07-29T05:56:03.512Z,51.99
2022-07-29T05:57:03.504Z,51.79
2022-07-29T05:58:03.488Z,51.68
2022-07-29T05:59:03.500Z,52.29
2022-07-29T06:00:03.483Z,51.79
2022-07-29T06:01:03.591Z,52.19
2022-07-29T06:02:03.463Z,52.59
2022-07-29T06:03:03.458Z,51.99
2022-07-29T06:04:03.484Z,51.86
2022-07-29T06:05:03.447Z,51.46
2022-07-29T06:06:03.436Z,50.13
2022-07-29T06:07:03.425Z,50.53
2022-07-29T06:08:03.431Z,51.04
2022-07-29T06:09:12.525Z,50.41
2022-07-29T06:10:04.404Z,50.41
2022-07-29T06:11:03.391Z,50.31
2022-07-29T06:12:03.385Z,50.61
2022-07-29T06:13:03.377Z,51.51
2022-07-29T06:14:03.391Z,51.31
2022-07-29T06:15:03.362Z,50.41
2022-07-29T06:16:03.404Z,50.41
2022-07-29T06:17:03.349Z,50.51
2022-07-29T06:18:03.337Z,50.51
2022-07-29T06:19:03.350Z,50.91
2022-07-29T06:20:03.326Z,50.29
2022-07-29T06:21:03.313Z,51.11
2022-07-29T06:22:03.315Z,51.51
2022-07-29T06:23:03.303Z,51.61
2022-07-29T06:24:03.427Z,52.12
2022-07-29T06:25:03.304Z,50.41
2022-07-29T06:26:03.286Z,50.11
2022-07-29T06:27:03.278Z,50.43
2022-07-29T06:28:03.265Z,50.43
2022-07-29T06:29:03.276Z,50.11
2022-07-29T06:30:03.252Z,49.80
2022-07-29T06:31:03.324Z,50.31
2022-07-29T06:32:03.236Z,50.84
2022-07-29T06:33:03.220Z,50.63
2022-07-29T06:34:03.444Z,51.14
2022-07-29T06:35:31.970Z,52.55
2022-07-29T06:36:04.201Z,52.37
2022-07-29T06:37:03.191Z,52.57
2022-07-29T06:38:03.180Z,52.14
2022-07-29T06:39:04.195Z,52.14
2022-07-29T06:40:03.203Z,52.06
2022-07-29T06:41:03.252Z,51.94
2022-07-29T06:42:03.146Z,51.97
2022-07-29T06:43:03.150Z,52.34
2022-07-29T06:44:03.167Z,52.87
2022-07-29T06:45:08.986Z,52.26
2022-07-29T06:46:04.301Z,51.46
2022-07-29T06:47:03.113Z,51.97
2022-07-29T06:48:03.103Z,52.06
2022-07-29T06:49:03.173Z,52.87
2022-07-29T06:50:03.083Z,52.06
2022-07-29T06:51:03.079Z,52.37
2022-07-29T06:52:03.070Z,52.87
2022-07-29T06:53:03.067Z,52.87
2022-07-29T06:54:03.753Z,54.17
2022-07-29T06:55:03.057Z,55.18
2022-07-29T06:56:03.032Z,55.88
2022-07-29T06:57:03.028Z,56.09
2022-07-29T06:58:03.047Z,56.38
2022-07-29T06:59:03.083Z,56.09
2022-07-29T07:00:03.006Z,56.19
2022-07-29T07:01:03.059Z,55.48
2022-07-29T07:02:03.025Z,56.79
2022-07-29T07:03:02.987Z,56.29
2022-07-29T07:04:02.994Z,55.58
2022-07-29T07:05:02.979Z,55.79
2022-07-29T07:06:02.959Z,55.79
2022-07-29T07:07:02.956Z,55.68
2022-07-29T07:08:02.952Z,56.29
2022-07-29T07:09:02.955Z,55.99
2022-07-29T07:10:02.932Z,55.96
2022-07-29T07:11:02.926Z,55.05
2022-07-29T07:12:02.919Z,56.76
2022-07-29T07:13:02.906Z,55.99
2022-07-29T07:14:04.085Z,56.79
2022-07-29T07:15:03.899Z,57.50
2022-07-29T07:16:02.882Z,57.29
2022-07-29T07:17:02.901Z,57.72
2022-07-29T07:18:02.867Z,58.02
2022-07-29T07:19:02.876Z,57.62
2022-07-29T07:20:02.851Z,57.39
2022-07-29T07:21:02.841Z,58.60
2022-07-29T07:22:02.840Z,58.29
2022-07-29T07:23:02.847Z,58.83
2022-07-29T07:24:02.852Z,60.11
2022-07-29T07:25:02.819Z,61.41
2022-07-29T07:26:02.805Z,62.02
2022-07-29T07:27:02.803Z,60.74
2022-07-29T07:28:02.791Z,62.95
2022-07-29T07:29:02.784Z,63.82
2022-07-29T07:30:02.790Z,64.06
2022-07-29T07:31:02.774Z,66.84
2022-07-29T07:32:02.812Z,67.68
2022-07-29T07:33:02.759Z,68.65
2022-07-29T07:34:02.750Z,67.58
2022-07-29T07:35:02.765Z,68.05
2022-07-29T07:36:02.732Z,67.82
2022-07-29T07:37:02.729Z,69.02
2022-07-29T07:38:02.714Z,69.69
2022-07-29T07:39:02.704Z,69.59
2022-07-29T07:40:02.714Z,70.56
2022-07-29T07:41:02.697Z,71.66
2022-07-29T07:42:02.690Z,69.66
2022-07-29T07:43:02.680Z,67.85
2022-07-29T07:44:02.666Z,68.45
2022-07-29T07:45:13.531Z,68.85
2022-07-29T07:46:03.754Z,70.56
2022-07-29T07:47:03.916Z,70.12
2022-07-29T07:48:03.634Z,71.43
2022-07-29T07:49:02.662Z,71.83
2022-07-29T07:50:02.635Z,72.43
2022-07-29T07:51:02.623Z,70.23
2022-07-29T07:52:02.824Z,70.19
2022-07-29T07:53:02.599Z,69.62
2022-07-29T07:54:02.786Z,69.69
2022-07-29T07:55:02.604Z,69.22
2022-07-29T07:56:11.735Z,69.39
2022-07-29T07:57:03.580Z,71.20
2022-07-29T07:58:02.559Z,69.76
2022-07-29T07:59:02.558Z,70.12
2022-07-29T08:00:02.556Z,69.73
2022-07-29T08:01:02.619Z,66.01
2022-07-29T08:02:02.693Z,67.61
2022-07-29T08:03:02.567Z,68.99
2022-07-29T08:04:02.518Z,68.19
2022-07-29T08:05:02.543Z,68.35
2022-07-29T08:06:02.501Z,67.52
2022-07-29T08:07:02.501Z,68.52
2022-07-29T08:08:02.495Z,69.62
2022-07-29T08:09:26.820Z,67.82
2022-07-29T08:10:03.489Z,67.69
2022-07-29T08:11:06.956Z,68.26
2022-07-29T08:12:03.460Z,69.06
2022-07-29T08:13:02.455Z,68.55
2022-07-29T08:14:02.442Z,70.09
2022-07-29T08:15:02.449Z,69.19
2022-07-29T08:16:02.500Z,67.99
2022-07-29T08:17:02.603Z,67.79
2022-07-29T08:18:08.034Z,63.47
2022-07-29T08:19:02.410Z,62.87
2022-07-29T08:20:02.409Z,62.87
2022-07-29T08:21:02.387Z,63.28
2022-07-29T08:22:02.380Z,63.87
2022-07-29T08:23:02.372Z,63.78
2022-07-29T08:24:06.659Z,62.27
2022-07-29T08:25:03.558Z,63.14
2022-07-29T08:26:02.358Z,62.21
2022-07-29T08:27:02.352Z,60.71
2022-07-29T08:28:02.333Z,60.51
2022-07-29T08:29:02.332Z,61.44
2022-07-29T08:30:02.336Z,60.14
2022-07-29T08:31:02.326Z,61.94
2022-07-29T08:32:02.357Z,62.04
2022-07-29T08:33:02.294Z,63.17
2022-07-29T08:34:02.279Z,60.53
2022-07-29T08:35:02.292Z,61.24
2022-07-29T08:36:02.265Z,60.84
2022-07-29T08:37:02.258Z,62.71
2022-07-29T08:38:02.258Z,61.68
2022-07-29T08:39:02.258Z,59.98
2022-07-29T08:40:02.284Z,61.58
2022-07-29T08:41:02.237Z,59.75
2022-07-29T08:42:02.262Z,56.15
2022-07-29T08:43:02.225Z,58.32
2022-07-29T08:44:02.209Z,57.32
2022-07-29T08:45:02.218Z,56.99
2022-07-29T08:46:02.235Z,56.70
2022-07-29T08:47:02.189Z,59.19
2022-07-29T08:48:02.182Z,57.07
2022-07-29T08:49:02.210Z,56.57
2022-07-29T08:50:02.174Z,55.44
2022-07-29T08:51:02.520Z,56.67
2022-07-29T08:52:02.150Z,56.87
2022-07-29T08:53:02.141Z,58.34
2022-07-29T08:54:02.135Z,56.88
2022-07-29T08:55:02.235Z,55.56
2022-07-29T08:56:02.119Z,50.15
2022-07-29T08:57:02.112Z,51.42
2022-07-29T08:58:02.105Z,50.38
2022-07-29T08:59:02.100Z,51.54
2022-07-29T09:00:06.451Z,47.77
2022-07-29T09:01:03.172Z,49.95
2022-07-29T09:02:02.153Z,50.15
2022-07-29T09:03:02.093Z,49.66
2022-07-29T09:04:02.124Z,46.03
2022-07-29T09:05:02.078Z,46.50
2022-07-29T09:06:02.072Z,47.08
2022-07-29T09:07:02.038Z,45.17
2022-07-29T09:08:02.028Z,45.89
2022-07-29T09:09:02.031Z,47.00
2022-07-29T09:10:02.017Z,47.50
2022-07-29T09:11:03.879Z,47.74
2022-07-29T09:12:02.001Z,49.98
2022-07-29T09:13:01.992Z,52.79
2022-07-29T09:14:01.985Z,50.80
2022-07-29T09:15:01.974Z,51.70
2022-07-29T09:16:07.077Z,52.09
2022-07-29T09:17:03.309Z,51.92
2022-07-29T09:18:01.953Z,51.52
2022-07-29T09:19:01.949Z,54.11
2022-07-29T09:20:01.947Z,50.23
2022-07-29T09:21:01.954Z,50.02
2022-07-29T09:22:03.270Z,52.72
2022-07-29T09:23:01.927Z,51.15
2022-07-29T09:24:01.914Z,52.25
2022-07-29T09:25:01.908Z,51.67
2022-07-29T09:26:01.931Z,52.97
2022-07-29T09:27:01.901Z,52.37
2022-07-29T09:28:01.892Z,49.85
2022-07-29T09:29:01.885Z,49.95
2022-07-29T09:30:01.895Z,50.15
2022-07-29T09:31:01.898Z,50.15
2022-07-29T09:32:01.884Z,50.55
2022-07-29T09:33:01.854Z,51.05
2022-07-29T09:34:01.850Z,52.49
2022-07-29T09:35:01.843Z,51.77
2022-07-29T09:36:02.021Z,51.15
2022-07-29T09:37:01.827Z,49.95
2022-07-29T09:38:01.814Z,50.10
2022-07-29T09:39:01.808Z,50.15
2022-07-29T09:40:01.808Z,47.05
2022-07-29T09:41:05.720Z,45.27
2022-07-29T09:42:01.789Z,43.37
2022-07-29T09:43:01.785Z,39.65
2022-07-29T09:44:01.772Z,34.46
2022-07-29T09:45:01.770Z,31.98
2022-07-29T09:46:01.771Z,28.83
2022-07-29T09:47:01.768Z,27.08
2022-07-29T09:48:01.744Z,25.26
2022-07-29T09:49:01.754Z,24.95
2022-07-29T09:50:01.733Z,25.13
2022-07-29T09:51:01.737Z,27.28
2022-07-29T09:52:01.716Z,24.78
2022-07-29T09:53:01.721Z,24.67
2022-07-29T09:54:01.699Z,25.34
2022-07-29T09:55:01.691Z,27.47
2022-07-29T09:56:01.707Z,29.71
2022-07-29T09:57:01.684Z,31.54
2022-07-29T09:58:01.666Z,29.91
2022-07-29T09:59:01.668Z,29.31
2022-07-29T10:00:01.655Z,27.48
2022-07-29T10:01:01.753Z,25.53
2022-07-29T10:02:01.649Z,24.87
2022-07-29T10:03:01.691Z,26.80
2022-07-29T10:04:01.628Z,29.18
2022-07-29T10:05:01.764Z,30.29
2022-07-29T10:06:01.609Z,29.25
2022-07-29T10:07:04.609Z,29.95
2022-07-29T10:08:01.594Z,31.32
2022-07-29T10:09:01.591Z,31.52
2022-07-29T10:10:01.580Z,31.52
2022-07-29T10:11:01.574Z,30.54
2022-07-29T10:12:01.783Z,30.54
2022-07-29T10:13:06.373Z,29.88
2022-07-29T10:14:02.613Z,29.44
2022-07-29T10:15:01.565Z,30.12
2022-07-29T10:16:01.582Z,30.10
2022-07-29T10:17:01.815Z,29.44
2022-07-29T10:18:01.733Z,30.19
2022-07-29T10:19:01.532Z,28.93
2022-07-29T10:20:01.516Z,29.85
2022-07-29T10:21:01.524Z,30.16
2022-07-29T10:22:01.838Z,32.68
2022-07-29T10:23:01.496Z,33.65
2022-07-29T10:24:01.723Z,32.97
2022-07-29T10:25:01.481Z,33.05
2022-07-29T10:26:01.474Z,32.78
2022-07-29T10:27:01.486Z,33.07
2022-07-29T10:28:01.460Z,33.38
2022-07-29T10:29:01.458Z,33.39
2022-07-29T10:30:01.444Z,32.72
2022-07-29T10:31:01.488Z,34.15
2022-07-29T10:32:01.442Z,35.08
2022-07-29T10:33:01.428Z,36.60
2022-07-29T10:34:01.411Z,38.00
2022-07-29T10:35:01.412Z,36.82
2022-07-29T10:36:01.424Z,38.49
2022-07-29T10:37:01.447Z,37.13
2022-07-29T10:38:01.386Z,37.21
2022-07-29T10:39:03.329Z,36.32
2022-07-29T10:40:01.373Z,37.09
2022-07-29T10:41:01.355Z,36.68
2022-07-29T10:42:01.370Z,37.09
2022-07-29T10:43:01.347Z,37.17
2022-07-29T10:44:01.373Z,36.96
2022-07-29T10:45:01.328Z,35.96
2022-07-29T10:46:01.348Z,35.27
2022-07-29T10:47:01.357Z,36.53
2022-07-29T10:48:01.308Z,35.23
2022-07-29T10:49:01.341Z,33.95
2022-07-29T10:50:01.694Z,34.41
2022-07-29T10:51:01.289Z,34.41
2022-07-29T10:52:01.293Z,34.70
2022-07-29T10:53:01.274Z,32.30
2022-07-29T10:54:01.266Z,33.46
2022-07-29T10:55:01.257Z,29.20
2022-07-29T10:56:01.260Z,28.16
2022-07-29T10:57:01.259Z,26.87
2022-07-29T10:58:01.245Z,26.76
2022-07-29T10:59:01.241Z,22.74
2022-07-29T11:00:01.230Z,22.63
2022-07-29T11:01:01.220Z,21.71
2022-07-29T11:02:27.728Z,22.31
2022-07-29T11:03:04.518Z,23.50
2022-07-29T11:04:01.202Z,23.61
2022-07-29T11:05:01.192Z,22.13
2022-07-29T11:06:01.189Z,22.00
2022-07-29T11:07:01.211Z,22.13
2022-07-29T11:08:02.289Z,22.96
2022-07-29T11:09:01.172Z,25.01
2022-07-29T11:10:01.190Z,24.39
2022-07-29T11:11:01.158Z,25.67
2022-07-29T11:12:01.594Z,25.67
2022-07-29T11:13:01.134Z,26.07
2022-07-29T11:14:01.140Z,25.47
2022-07-29T11:15:01.125Z,24.95
2022-07-29T11:16:01.141Z,24.03
2022-07-29T11:17:01.110Z,22.23
2022-07-29T11:18:01.119Z,21.62
2022-07-29T11:19:01.098Z,21.92
2022-07-29T11:20:01.092Z,21.65
2022-07-29T11:21:01.090Z,22.13
2022-07-29T11:22:01.223Z,21.75
2022-07-29T11:23:01.106Z,21.88
2022-07-29T11:24:01.066Z,22.45
2022-07-29T11:25:01.058Z,21.67
2022-07-29T11:26:01.058Z,21.12
2022-07-29T11:27:01.229Z,20.20
2022-07-29T11:28:01.065Z,18.63
2022-07-29T11:29:01.035Z,19.08
2022-07-29T11:30:01.366Z,18.73
2022-07-29T11:31:01.023Z,16.38
2022-07-29T11:32:01.025Z,16.37
2022-07-29T11:33:01.031Z,16.00
2022-07-29T11:34:05.510Z,16.59
2022-07-29T11:35:01.007Z,16.51
2022-07-29T11:36:03.321Z,16.39
2022-07-29T11:37:00.990Z,16.78
2022-07-29T11:38:01.004Z,15.52
2022-07-29T11:39:00.982Z,15.92
2022-07-29T11:40:02.275Z,16.03
2022-07-29T11:41:00.990Z,17.02
2022-07-29T11:42:05.005Z,17.90
2022-07-29T11:43:01.976Z,18.85
2022-07-29T11:44:01.306Z,18.02
2022-07-29T11:45:08.870Z,18.98
2022-07-29T11:46:01.948Z,18.44
2022-07-29T11:47:00.943Z,19.64
2022-07-29T11:48:29.642Z,20.23
2022-07-29T11:49:01.986Z,20.42
2022-07-29T11:50:00.934Z,19.65
2022-07-29T11:51:00.965Z,19.23
2022-07-29T11:52:01.254Z,18.75
2022-07-29T11:53:00.951Z,19.12
2022-07-29T11:54:05.256Z,18.05
2022-07-29T11:55:00.954Z,17.25
2022-07-29T11:57:01.881Z,18.81
2022-07-29T11:58:04.169Z,18.63
2022-07-29T11:59:00.873Z,19.33
2022-07-29T12:00:09.404Z,20.00
2022-07-29T12:01:04.656Z,19.95
2022-07-29T12:02:18.547Z,19.90
2022-07-29T12:03:01.914Z,18.48
2022-07-29T12:04:00.964Z,16.59
2022-07-29T12:05:00.842Z,16.87
2022-07-29T12:06:01.839Z,15.61
2022-07-29T12:07:00.863Z,15.64
2022-07-29T12:07:03.784Z,18.12
2022-07-29T12:08:00.840Z,16.39
2022-07-29T12:09:00.813Z,15.67
2022-07-29T12:10:00.813Z,15.40
2022-07-29T12:11:00.802Z,15.25
2022-07-29T12:12:05.238Z,16.49
2022-07-29T12:13:00.813Z,16.38
2022-07-29T12:14:00.799Z,16.02
2022-07-29T12:15:00.786Z,15.14
2022-07-29T12:16:00.831Z,16.16
2022-07-29T12:17:00.821Z,19.12
2022-07-29T12:18:03.900Z,18.54
2022-07-29T12:19:00.764Z,18.52
2022-07-29T12:20:00.758Z,18.10
2022-07-29T12:21:00.755Z,17.68
2022-07-29T12:22:01.156Z,16.71
2022-07-29T12:23:00.770Z,16.98
2022-07-29T12:24:05.476Z,17.04
2022-07-29T12:25:23.271Z,15.42
2022-07-29T12:26:01.737Z,16.08
2022-07-29T12:27:00.731Z,15.91
2022-07-29T12:28:00.729Z,15.53
2022-07-29T12:29:02.315Z,15.43
2022-07-29T12:30:00.741Z,15.81
2022-07-29T12:31:00.849Z,15.02
2022-07-29T12:32:01.069Z,15.93
2022-07-29T12:33:00.703Z,16.00
2022-07-29T12:34:00.717Z,15.12
2022-07-29T12:35:00.694Z,15.48
2022-07-29T12:36:07.552Z,15.41
2022-07-29T12:37:01.727Z,16.03
2022-07-29T12:38:00.684Z,16.93
2022-07-29T12:39:00.688Z,16.55
2022-07-29T12:40:00.674Z,17.82
2022-07-29T12:41:00.665Z,18.52
2022-07-29T12:42:04.838Z,18.55
2022-07-29T12:43:00.662Z,16.11
2022-07-29T12:44:00.681Z,15.40
2022-07-29T12:45:00.651Z,15.18
2022-07-29T12:46:00.653Z,14.69
2022-07-29T12:47:00.678Z,13.64
2022-07-29T12:48:00.644Z,14.70
2022-07-29T12:49:00.763Z,15.21
2022-07-29T12:50:00.635Z,15.25
2022-07-29T12:51:00.625Z,17.47
2022-07-29T12:52:00.895Z,16.19